Time;durP1;ratioP1;P1;durP2;ratioP2;P2;SDS_P1;SDS_P2;PMS_P1;PMS_P2;Temp;Humidity;BMP_temperature;BMP_pressure;BME280_temperature;BME280_humidity;BME280_pressure;Samples;Min_cycle;Max_cycle;Signal;HPM_P1;HPM_P2
2023/01/11 00:00:25;;;;;;;0.10;0.10;;;;;;;12.43;78.37;100567.63;5066237;28;20025;-79
2023/01/11 00:03:00;;;;;;;0.10;0.10;;;;;;;12.47;78.70;100569.25;5064012;27;20029;-79
2023/01/11 00:05:26;;;;;;;0.10;0.10;;;;;;;12.43;79.36;100562.31;5064637;27;20376;-79
2023/01/11 00:07:53;;;;;;;0.28;0.28;;;;;;;12.41;79.26;100565.03;5070301;28;20032;-79
2023/01/11 00:10:20;;;;;;;0.17;0.17;;;;;;;12.44;79.73;100545.44;5076864;27;20476;-80
2023/01/11 00:12:47;;;;;;;0.20;0.20;;;;;;;12.49;78.78;100555.94;5075458;27;20045;-79
2023/01/11 00:15:14;;;;;;;0.22;0.22;;;;;;;12.51;79.08;100552.31;5065904;28;20025;-80
2023/01/11 00:17:40;;;;;;;0.13;0.13;;;;;;;12.43;79.68;100549.03;5077628;28;20039;-80
2023/01/11 00:20:10;;;;;;;0.10;0.10;;;;;;;12.41;80.16;100557.06;5060627;28;20025;-80
2023/01/11 00:22:36;;;;;;;0.10;0.10;;;;;;;12.58;79.01;100548.50;5056971;27;20021;-81
2023/01/11 00:25:03;;;;;;;0.10;0.10;;;;;;;12.54;79.53;100559.31;5065734;27;20033;-81
2023/01/11 00:27:29;;;;;;;0.10;0.10;;;;;;;12.52;79.73;100566.47;5071553;28;20493;-81
2023/01/11 00:29:56;;;;;;;0.30;0.30;;;;;;;12.58;79.36;100553.81;5071165;27;20037;-81
2023/01/11 00:32:22;;;;;;;0.30;0.30;;;;;;;12.64;79.26;100552.75;5080779;28;20081;-81
2023/01/11 00:34:48;;;;;;;0.20;0.20;;;;;;;12.66;79.56;100552.69;5070458;27;20021;-81
2023/01/11 00:37:14;;;;;;;0.10;0.10;;;;;;;12.67;79.30;100546.47;5060936;28;20465;-81
2023/01/11 00:39:40;;;;;;;0.10;0.10;;;;;;;12.65;79.49;100557.16;5058590;27;20036;-80
2023/01/11 00:48:10;;;;;;;0.10;0.10;;;;;;;12.65;79.60;100550.97;5060094;28;20029;-80
2023/01/11 00:50:28;;;;;;;0.10;0.10;;;;;;;12.64;79.86;100557.22;5058033;28;20178;-80
2023/01/11 00:52:54;;;;;;;0.10;0.10;;;;;;;12.71;79.65;100556.06;5059092;27;20503;-80
2023/01/11 00:55:21;;;;;;;0.20;0.20;;;;;;;12.65;79.64;100557.16;5069350;28;20526;-80
2023/01/11 00:57:47;;;;;;;0.10;0.10;;;;;;;12.74;79.50;100548.00;5084535;28;20020;-79
2023/01/11 01:00:13;;;;;;;0.13;0.13;;;;;;;12.63;79.54;100545.72;5073089;27;20799;-79
2023/01/11 01:02:39;;;;;;;0.30;0.30;;;;;;;12.74;79.39;100551.53;5073715;28;20036;-81
2023/01/11 01:05:06;;;;;;;0.22;0.22;;;;;;;12.70;80.02;100551.69;5080378;27;20036;-81
2023/01/11 01:07:32;;;;;;;0.10;0.10;;;;;;;12.78;79.81;100552.28;5091074;28;20029;-79
2023/01/11 01:09:58;;;;;;;1.60;1.50;;;;;;;12.73;79.99;100552.44;5083937;27;20039;-79
2023/01/11 01:15:10;;;;;;;0.40;0.40;;;;;;;12.79;79.55;100548.72;5073889;28;20121;-81
2023/01/11 01:17:37;;;;;;;0.10;0.10;;;;;;;12.76;80.23;100559.44;5081239;27;20040;-81
2023/01/11 01:20:04;;;;;;;0.13;0.13;;;;;;;12.82;79.75;100559.22;5078559;27;20422;-80
2023/01/11 01:22:30;;;;;;;0.32;0.30;;;;;;;12.87;79.36;100548.44;5070232;28;20483;-80
2023/01/11 01:24:56;;;;;;;0.10;0.10;;;;;;;12.93;79.63;100557.09;5081155;27;20057;-81
2023/01/11 01:27:22;;;;;;;0.10;0.10;;;;;;;12.84;79.33;100552.09;5069519;27;20119;-80
2023/01/11 01:29:48;;;;;;;12.30;2.38;;;;;;;12.89;79.68;100568.75;5067541;28;20384;-80
2023/01/11 01:32:14;;;;;;;1.65;1.55;;;;;;;12.85;79.88;100561.81;5078053;28;20029;-80
2023/01/11 01:34:40;;;;;;;0.10;0.10;;;;;;;12.84;79.80;100556.56;5081434;27;20028;-80
2023/01/11 01:37:09;;;;;;;0.10;0.10;;;;;;;12.85;79.40;100558.28;5082043;27;20557;-81
2023/01/11 01:39:35;;;;;;;0.52;0.52;;;;;;;12.85;80.01;100572.44;5067253;28;20078;-81
2023/01/11 01:42:01;;;;;;;0.05;0.05;;;;;;;12.79;80.05;100570.84;5072359;28;20023;-81
2023/01/11 01:47:42;;;;;;;1.45;0.68;;;;;;;12.89;79.82;100579.38;5098783;27;20364;-79
2023/01/11 01:50:16;;;;;;;0.32;0.32;;;;;;;12.85;80.21;100587.53;5081159;28;20064;-80
2023/01/11 01:52:47;;;;;;;0.10;0.10;;;;;;;12.86;80.15;100578.63;5079446;28;20028;-80
2023/01/11 01:55:24;;;;;;;0.20;0.20;;;;;;;12.88;79.42;100585.63;5077738;28;20028;-80
2023/01/11 01:57:51;;;;;;;0.10;0.10;;;;;;;12.86;79.77;100587.47;5080742;28;20055;-80
2023/01/11 02:00:18;;;;;;;0.10;0.10;;;;;;;12.83;80.26;100592.88;5079866;28;20058;-80
2023/01/11 02:02:45;;;;;;;0.10;0.10;;;;;;;12.78;80.14;100587.75;5080133;28;20415;-80
2023/01/11 02:05:14;;;;;;;0.10;0.10;;;;;;;12.83;80.30;100584.06;5079162;28;20062;-80
2023/01/11 02:07:43;;;;;;;0.15;0.15;;;;;;;12.83;80.04;100595.53;5077538;28;20037;-79
2023/01/11 02:13:03;;;;;;;0.20;0.20;;;;;;;12.82;80.04;100596.47;5124913;27;20420;-80
2023/01/11 02:15:30;;;;;;;0.20;0.20;;;;;;;12.85;79.93;100601.69;5107266;28;20081;-79
2023/01/11 02:17:56;;;;;;;0.15;0.15;;;;;;;12.87;79.95;100610.50;5107252;28;20055;-79
2023/01/11 02:23:42;;;;;;;0.10;0.10;;;;;;;12.99;79.65;100597.69;5124474;27;20396;-78
2023/01/11 02:32:15;;;;;;;0.20;0.20;;;;;;;13.03;79.28;100588.69;5130008;27;1180826;-80
2023/01/11 02:34:54;;;;;;;0.10;0.10;;;;;;;13.01;79.50;100585.19;5125945;27;20039;-79
2023/01/11 02:37:38;;;;;;;0.10;0.10;;;;;;;12.97;79.99;100600.38;5121024;28;20403;-80
2023/01/11 02:45:49;;;;;;;0.10;0.10;;;;;;;13.06;79.47;100593.88;5071681;28;20043;-78
2023/01/11 02:53:57;;;;;;;0.10;0.10;;;;;;;13.16;79.39;100594.44;5133045;27;20417;-80
2023/01/11 02:56:28;;;;;;;0.28;0.28;;;;;;;13.11;79.81;100592.81;5082637;28;20040;-79
2023/01/11 02:58:56;;;;;;;0.52;0.52;;;;;;;13.15;79.42;100596.25;5086147;28;20032;-79
2023/01/11 03:01:24;;;;;;;0.20;0.20;;;;;;;13.17;79.46;100604.16;5098588;28;20024;-79
2023/01/11 03:03:51;;;;;;;0.15;0.15;;;;;;;13.20;79.09;100606.75;5088810;28;20017;-80
2023/01/11 03:06:22;;;;;;;0.10;0.10;;;;;;;13.23;79.37;100604.84;5097890;28;20043;-79
2023/01/11 03:17:49;;;;;;;0.10;0.10;;;;;;;13.25;79.37;100618.09;5101687;27;20348;-79
2023/01/11 03:31:13;;;;;;;0.10;0.10;;;;;;;13.25;79.57;100618.94;5101596;27;1877991;-79
2023/01/11 03:33:48;;;;;;;0.10;0.10;;;;;;;13.21;79.06;100630.63;5131272;28;20115;-79
2023/01/11 03:39:12;;;;;;;0.10;0.10;;;;;;;13.29;78.93;100621.50;5128511;27;1175048;-78
2023/01/11 03:41:40;;;;;;;0.10;0.10;;;;;;;13.29;78.80;100624.16;5146393;27;20039;-78
2023/01/11 03:44:11;;;;;;;0.10;0.10;;;;;;;13.27;78.92;100625.09;5124956;27;20034;-78
2023/01/11 03:46:43;;;;;;;0.10;0.10;;;;;;;13.29;78.86;100626.84;5122396;28;20380;-79
2023/01/11 03:49:17;;;;;;;0.20;0.20;;;;;;;13.30;79.03;100633.91;5122415;28;20026;-79
2023/01/11 03:51:46;;;;;;;0.10;0.10;;;;;;;13.23;78.94;100636.78;5123153;28;20044;-79
2023/01/11 03:54:18;;;;;;;0.30;0.30;;;;;;;13.25;78.63;100634.91;5116468;28;20038;-78
2023/01/11 03:57:09;;;;;;;0.10;0.10;;;;;;;13.31;78.42;100635.59;5107018;28;20038;-78
2023/01/11 03:59:35;;;;;;;0.10;0.10;;;;;;;13.19;78.81;100637.78;5113125;28;20578;-78
2023/01/11 04:02:02;;;;;;;0.10;0.10;;;;;;;13.29;78.30;100648.13;5107340;28;20127;-79
2023/01/11 04:04:28;;;;;;;0.30;0.30;;;;;;;13.22;78.08;100663.41;5111663;28;20029;-78
2023/01/11 04:06:55;;;;;;;0.10;0.10;;;;;;;13.27;77.81;100672.09;5113666;28;20024;-79
2023/01/11 04:09:21;;;;;;;0.10;0.10;;;;;;;13.35;77.94;100671.84;5119322;28;20027;-79
2023/01/11 04:11:47;;;;;;;0.10;0.10;;;;;;;13.38;77.80;100679.75;5120016;28;20211;-79
2023/01/11 04:14:13;;;;;;;0.20;0.20;;;;;;;13.32;77.70;100679.94;5110722;28;20032;-79
2023/01/11 04:16:39;;;;;;;0.10;0.10;;;;;;;13.30;77.56;100687.13;5119329;28;20031;-78
2023/01/11 04:19:05;;;;;;;0.25;0.25;;;;;;;13.27;77.72;100678.31;5118772;28;20024;-77
2023/01/11 04:21:31;;;;;;;0.10;0.10;;;;;;;13.30;77.32;100682.66;5119649;28;20058;-78
2023/01/11 04:23:57;;;;;;;0.90;0.90;;;;;;;13.27;77.31;100688.94;5118143;28;20024;-78
2023/01/11 04:26:23;;;;;;;0.10;0.10;;;;;;;13.30;76.68;100684.44;5119593;28;20066;-78
2023/01/11 04:28:49;;;;;;;0.25;0.25;;;;;;;13.24;76.66;100686.38;5116581;28;20062;-78
2023/01/11 04:31:15;;;;;;;0.38;0.38;;;;;;;13.31;76.83;100683.50;5118220;28;20115;-77
2023/01/11 04:33:41;;;;;;;0.17;0.17;;;;;;;13.29;76.30;100690.69;5118491;28;20043;-78
2023/01/11 04:36:10;;;;;;;0.47;0.47;;;;;;;13.27;76.17;100688.94;5119972;28;20463;-78
2023/01/11 04:38:37;;;;;;;1.10;1.10;;;;;;;13.19;76.24;100706.09;5119064;28;20046;-79
2023/01/11 04:43:52;;;;;;;0.20;0.20;;;;;;;13.22;76.39;100712.19;5107461;28;20126;-79
2023/01/11 04:46:18;;;;;;;0.43;0.43;;;;;;;13.23;75.92;100713.94;5118581;28;20038;-78
2023/01/11 04:48:44;;;;;;;3.53;1.23;;;;;;;13.15;75.77;100705.31;5116927;28;20048;-78
2023/01/11 04:51:10;;;;;;;0.20;0.20;;;;;;;13.17;75.62;100708.81;5104749;28;20042;-78
2023/01/11 04:53:36;;;;;;;0.10;0.10;;;;;;;13.16;75.62;100716.81;5094555;28;20029;-78
2023/01/11 04:56:04;;;;;;;1.95;1.75;;;;;;;13.06;75.57;100713.56;5100514;28;20099;-78
2023/01/11 04:58:31;;;;;;;0.10;0.10;;;;;;;13.05;75.43;100720.69;5105308;28;20039;-77
2023/01/11 05:00:57;;;;;;;0.40;0.40;;;;;;;13.06;75.16;100714.47;5101193;28;20088;-79
2023/01/11 05:03:24;;;;;;;0.10;0.10;;;;;;;12.99;74.79;100714.72;5096357;28;20032;-79
2023/01/11 05:05:58;;;;;;;0.10;0.10;;;;;;;12.89;74.60;100720.31;5095575;28;20036;-78
2023/01/11 05:08:25;;;;;;;0.10;0.10;;;;;;;12.91;74.75;100722.91;5105016;28;20031;-79
2023/01/11 05:10:54;;;;;;;0.20;0.20;;;;;;;12.88;74.32;100721.22;5103559;28;20027;-79
2023/01/11 05:13:20;;;;;;;0.13;0.13;;;;;;;12.89;74.43;100727.44;5095408;28;20036;-79
2023/01/11 05:15:47;;;;;;;4.70;0.93;;;;;;;12.72;74.48;100743.91;5104979;28;20024;-79
2023/01/11 05:18:13;;;;;;;0.10;0.10;;;;;;;12.72;73.76;100735.94;5105282;28;20063;-78
2023/01/11 05:20:39;;;;;;;0.10;0.10;;;;;;;12.69;73.89;100744.00;5102430;28;20039;-78
2023/01/11 05:23:05;;;;;;;0.10;0.10;;;;;;;12.60;73.45;100746.00;5097933;28;20104;-78
2023/01/11 05:25:31;;;;;;;0.10;0.10;;;;;;;12.61;73.36;100749.53;5104496;28;20034;-78
2023/01/11 05:27:57;;;;;;;0.08;0.08;;;;;;;12.59;72.66;100770.84;5106014;28;20032;-78
2023/01/11 05:30:23;;;;;;;0.10;0.10;;;;;;;12.56;73.18;100762.97;5095832;28;20091;-79
2023/01/11 05:32:49;;;;;;;0.10;0.10;;;;;;;12.53;73.74;100756.88;5103358;28;20028;-79
2023/01/11 05:35:15;;;;;;;0.10;0.10;;;;;;;12.45;73.03;100767.75;5103915;28;20069;-78
2023/01/11 05:37:41;;;;;;;1.65;0.47;;;;;;;12.43;73.15;100765.09;5104261;28;20036;-78
2023/01/11 05:40:08;;;;;;;0.57;0.57;;;;;;;12.39;72.97;100757.28;5103333;28;20039;-78
2023/01/11 05:42:34;;;;;;;0.10;0.10;;;;;;;12.30;72.38;100769.06;5101852;28;20032;-79
2023/01/11 05:45:34;;;;;;;0.10;0.10;;;;;;;12.25;72.63;100766.53;5103695;28;20028;-79
2023/01/11 05:47:46;;;;;;;0.13;0.13;;;;;;;12.27;72.49;100770.00;5083779;28;20032;-79
2023/01/11 05:50:12;;;;;;;0.10;0.10;;;;;;;12.26;72.67;100772.69;5082218;28;20404;-79
2023/01/11 05:52:38;;;;;;;0.22;0.22;;;;;;;12.24;72.00;100775.41;5088486;28;20126;-78
2023/01/11 05:55:05;;;;;;;0.10;0.10;;;;;;;12.19;73.15;100774.66;5104261;28;20407;-79
2023/01/11 05:57:31;;;;;;;3.03;2.83;;;;;;;12.17;72.10;100760.53;5094323;28;20050;-79
2023/01/11 05:59:57;;;;;;;0.25;0.25;;;;;;;12.16;72.37;100777.38;5095383;28;20029;-79
2023/01/11 06:02:23;;;;;;;0.10;0.10;;;;;;;12.13;72.68;100781.00;5098033;28;20566;-79
2023/01/11 06:04:49;;;;;;;0.10;0.10;;;;;;;12.05;72.45;100785.66;5103065;28;20035;-79
2023/01/11 06:07:15;;;;;;;0.10;0.10;;;;;;;12.07;72.20;100794.44;5103117;28;20028;-79
2023/01/11 06:09:41;;;;;;;0.20;0.20;;;;;;;11.96;72.44;100801.81;5101732;28;20024;-79
2023/01/11 06:12:07;;;;;;;0.15;0.15;;;;;;;12.01;72.23;100804.38;5093011;28;20085;-79
2023/01/11 06:14:33;;;;;;;0.15;0.15;;;;;;;11.98;72.75;100811.50;5094028;28;20047;-78
2023/01/11 06:17:01;;;;;;;0.10;0.10;;;;;;;12.00;72.35;100818.56;5106670;28;20036;-78
2023/01/11 06:19:27;;;;;;;0.10;0.10;;;;;;;11.87;71.98;100813.53;5096100;28;20032;-77
2023/01/11 06:21:53;;;;;;;0.10;0.10;;;;;;;11.88;72.56;100825.91;5097039;28;20056;-78
2023/01/11 06:24:19;;;;;;;0.10;0.10;;;;;;;11.89;72.42;100830.31;5103631;28;20034;-78
2023/01/11 06:26:45;;;;;;;1.48;1.38;;;;;;;11.84;72.07;100833.97;5122386;28;20032;-79
2023/01/11 06:29:13;;;;;;;0.10;0.10;;;;;;;11.75;72.60;100835.06;5103921;28;20036;-77
2023/01/11 06:31:39;;;;;;;0.10;0.10;;;;;;;11.79;72.12;100820.84;5095406;28;20023;-78
2023/01/11 06:34:05;;;;;;;0.10;0.10;;;;;;;11.76;72.15;100826.22;5101133;28;20092;-78
2023/01/11 06:36:31;;;;;;;0.10;0.10;;;;;;;11.72;72.14;100835.16;5121387;28;20027;-78
2023/01/11 06:38:57;;;;;;;0.10;0.10;;;;;;;11.70;71.88;100839.63;5103896;28;20052;-78
2023/01/11 06:41:23;;;;;;;0.80;0.80;;;;;;;11.68;72.36;100850.28;5097309;28;20032;-78
2023/01/11 06:43:50;;;;;;;0.10;0.10;;;;;;;11.65;72.33;100853.91;5100785;28;20024;-79
2023/01/11 06:46:17;;;;;;;1.48;1.38;;;;;;;11.68;72.19;100852.09;5102592;28;20562;-78
2023/01/11 06:48:44;;;;;;;0.20;0.20;;;;;;;11.70;72.47;100866.16;5101491;28;20063;-79
2023/01/11 06:51:11;;;;;;;2.88;2.70;;;;;;;11.76;72.02;100868.69;5093055;28;20066;-77
2023/01/11 06:53:38;;;;;;;0.10;0.10;;;;;;;11.67;71.92;100869.78;5081179;28;20073;-77
2023/01/11 06:56:04;;;;;;;0.13;0.13;;;;;;;11.68;71.76;100865.34;5082585;28;20048;-79
2023/01/11 06:58:30;;;;;;;1.75;1.65;;;;;;;11.69;71.40;100867.06;5083286;28;20102;-78
2023/01/11 07:00:57;;;;;;;0.47;0.47;;;;;;;11.66;71.62;100870.69;5096785;28;20040;-78
2023/01/11 07:03:26;;;;;;;0.13;0.13;;;;;;;11.71;71.02;100873.22;5096285;28;20702;-78
2023/01/11 07:05:55;;;;;;;0.20;0.20;;;;;;;11.68;71.18;100868.00;5098645;28;20028;-78
2023/01/11 07:08:22;;;;;;;0.30;0.30;;;;;;;11.65;71.45;100872.47;5101355;28;20024;-78
2023/01/11 07:10:49;;;;;;;0.10;0.10;;;;;;;11.61;71.27;100876.13;5100313;28;20038;-78
2023/01/11 07:13:16;;;;;;;0.17;0.17;;;;;;;11.59;71.49;100890.31;5098760;28;20070;-78
2023/01/11 07:15:44;;;;;;;0.10;0.10;;;;;;;11.52;71.44;100896.69;5100179;28;20475;-78
2023/01/11 07:18:11;;;;;;;0.10;0.10;;;;;;;11.47;71.11;100900.28;5100531;28;20389;-78
2023/01/11 07:20:37;;;;;;;0.95;0.95;;;;;;;11.49;71.35;100900.28;5095910;28;20031;-78
2023/01/11 07:23:03;;;;;;;0.10;0.10;;;;;;;11.45;71.60;100902.13;5100867;28;20035;-79
2023/01/11 07:25:30;;;;;;;0.15;0.15;;;;;;;11.42;71.63;100912.81;5097709;28;20059;-80
2023/01/11 07:27:57;;;;;;;0.10;0.10;;;;;;;11.33;71.18;100913.88;5093877;28;20043;-79
2023/01/11 07:30:24;;;;;;;0.10;0.10;;;;;;;11.29;70.92;100912.22;5090949;28;20082;-79
2023/01/11 07:32:50;;;;;;;0.13;0.13;;;;;;;11.25;70.77;100907.88;5106876;28;20032;-79
2023/01/11 07:35:16;;;;;;;1.13;1.10;;;;;;;11.20;71.00;100915.03;5109636;28;20391;-78
2023/01/11 07:37:44;;;;;;;0.10;0.10;;;;;;;11.14;70.62;100912.53;5105163;28;20129;-79
2023/01/11 07:40:11;;;;;;;0.10;0.10;;;;;;;11.14;70.93;100920.47;5091313;28;20100;-79
2023/01/11 07:45:23;;;;;;;0.10;0.10;;;;;;;11.01;71.42;100933.13;5093815;28;20059;-79
2023/01/11 07:47:50;;;;;;;0.10;0.10;;;;;;;10.97;71.39;100932.31;5098137;28;20028;-80
2023/01/11 07:50:17;;;;;;;0.10;0.10;;;;;;;10.95;71.40;100934.16;5099275;28;20028;-79
2023/01/11 07:52:47;;;;;;;0.35;0.35;;;;;;;10.93;71.29;100940.34;5103631;28;20051;-79
2023/01/11 07:55:14;;;;;;;0.20;0.20;;;;;;;10.89;71.55;100958.13;5103932;28;20130;-79
2023/01/11 07:57:40;;;;;;;0.82;0.82;;;;;;;10.85;71.64;100953.75;5099050;28;20025;-80
2023/01/11 08:00:08;;;;;;;3.20;2.92;;;;;;;10.81;71.53;100955.59;5087254;28;20074;-81
2023/01/11 08:02:34;;;;;;;0.20;0.20;;;;;;;10.75;72.07;100962.81;5099166;28;20075;-80
2023/01/11 08:05:00;;;;;;;0.10;0.10;;;;;;;10.77;71.98;100961.88;5102611;28;20069;-81
2023/01/11 08:07:26;;;;;;;0.10;0.10;;;;;;;10.75;71.71;100962.81;5107559;28;20031;-81
2023/01/11 08:09:52;;;;;;;0.15;0.15;;;;;;;10.73;71.94;100965.50;5094949;28;20092;-80
2023/01/11 08:15:04;;;;;;;0.10;0.10;;;;;;;10.66;72.00;100985.91;5111750;28;20027;-80
2023/01/11 08:17:32;;;;;;;0.10;0.10;;;;;;;10.64;72.01;100989.50;5116219;28;20050;-80
2023/01/11 08:19:58;;;;;;;0.10;0.10;;;;;;;10.64;71.87;100993.03;5116299;28;20120;-81
2023/01/11 08:22:24;;;;;;;0.10;0.10;;;;;;;10.64;72.38;100981.53;5117212;28;20028;-80
2023/01/11 08:24:50;;;;;;;0.10;0.10;;;;;;;10.63;71.98;100988.63;5118538;28;20031;-80
2023/01/11 08:27:16;;;;;;;0.10;0.10;;;;;;;10.59;72.03;100994.00;5121062;28;20052;-81
2023/01/11 08:29:43;;;;;;;0.10;0.10;;;;;;;10.61;71.82;100995.72;5113508;28;20025;-82
2023/01/11 08:32:10;;;;;;;0.15;0.15;;;;;;;10.58;72.16;101009.03;5103624;28;20031;-81
2023/01/11 08:34:36;;;;;;;0.10;0.10;;;;;;;10.61;72.04;101014.25;5108076;28;20028;-81
2023/01/11 08:37:03;;;;;;;0.20;0.20;;;;;;;10.61;71.90;101027.50;5107507;28;20028;-80
2023/01/11 08:39:29;;;;;;;0.52;0.52;;;;;;;10.59;72.38;101016.09;5100080;28;20036;-83
2023/01/11 08:41:57;;;;;;;0.40;0.40;;;;;;;10.65;72.26;101028.34;5106932;28;20059;-79
2023/01/11 08:44:23;;;;;;;0.10;0.10;;;;;;;10.65;72.26;101031.88;5108381;28;20035;-81
2023/01/11 08:46:49;;;;;;;0.20;0.20;;;;;;;10.60;72.07;101023.09;5106234;28;20491;-81
2023/01/11 08:49:15;;;;;;;1.48;1.48;;;;;;;10.54;71.92;101038.25;5111105;28;20115;-81
2023/01/11 08:51:41;;;;;;;0.10;0.10;;;;;;;10.55;72.44;101038.22;5111675;28;20036;-80
2023/01/11 08:54:12;;;;;;;0.80;0.43;;;;;;;10.57;71.93;101028.47;5112710;28;20038;-80
2023/01/11 08:56:38;;;;;;;0.15;0.15;;;;;;;10.59;72.29;101028.44;5108163;28;20087;-81
2023/01/11 08:59:05;;;;;;;0.10;0.10;;;;;;;10.58;72.11;101019.63;5104966;28;20438;-80
2023/01/11 09:01:32;;;;;;;0.10;0.10;;;;;;;10.61;71.80;101018.69;5096046;28;20096;-81
2023/01/11 09:03:58;;;;;;;0.10;0.10;;;;;;;10.56;71.63;101025.88;5104540;28;20028;-81
2023/01/11 09:06:24;;;;;;;0.10;0.10;;;;;;;10.63;71.62;101030.13;5102192;28;20036;-82
2023/01/11 09:08:51;;;;;;;0.10;0.10;;;;;;;10.63;71.71;101017.78;5098681;28;20054;-83
2023/01/11 09:14:03;;;;;;;0.10;0.10;;;;;;;10.64;71.41;101014.22;5101048;28;20035;-81
2023/01/11 09:16:29;;;;;;;0.10;0.10;;;;;;;10.64;71.49;101027.47;5092301;28;20032;-83
2023/01/11 09:18:55;;;;;;;0.10;0.10;;;;;;;10.70;71.70;101029.13;5098157;28;20040;-84
2023/01/11 09:21:22;;;;;;;0.10;0.10;;;;;;;10.73;71.49;101038.78;5100186;28;20420;-82
2023/01/11 09:23:48;;;;;;;0.10;0.10;;;;;;;10.76;71.76;101044.06;5099395;28;20169;-82
2023/01/11 09:26:15;;;;;;;1.70;1.60;;;;;;;10.82;71.63;101034.22;5097355;28;20059;-84
2023/01/11 09:28:41;;;;;;;0.10;0.10;;;;;;;10.92;70.45;101040.22;5097380;28;20032;-80
2023/01/11 09:31:07;;;;;;;0.10;0.10;;;;;;;10.97;70.93;101041.00;5088570;28;20088;-79
2023/01/11 09:33:34;;;;;;;0.10;0.10;;;;;;;10.96;70.46;101047.22;5097034;28;20054;-79
2023/01/11 09:36:01;;;;;;;5.38;3.10;;;;;;;10.97;70.67;101042.81;5093516;28;20028;-80
2023/01/11 09:38:29;;;;;;;0.10;0.10;;;;;;;11.04;70.89;101048.84;5096553;28;20024;-80
2023/01/11 09:41:08;;;;;;;0.10;0.10;;;;;;;11.07;70.85;101040.84;5095272;28;20107;-80
2023/01/11 09:43:44;;;;;;;0.30;0.30;;;;;;;11.06;70.06;101045.28;5094715;28;20559;-81
2023/01/11 09:46:12;;;;;;;0.32;0.32;;;;;;;11.07;70.13;101059.41;5095989;28;20048;-80
2023/01/11 09:48:50;;;;;;;0.10;0.10;;;;;;;11.14;70.00;101056.63;5105165;28;20024;-81
2023/01/11 09:51:18;;;;;;;0.10;0.10;;;;;;;11.15;69.30;101068.97;5101184;28;20027;-81
2023/01/11 09:53:49;;;;;;;0.10;0.10;;;;;;;11.20;69.49;101071.53;5099862;28;20028;-80
2023/01/11 09:56:23;;;;;;;0.10;0.10;;;;;;;11.15;68.19;101074.28;5096961;28;20032;-80
2023/01/11 09:59:19;;;;;;;0.15;0.15;;;;;;;11.34;68.87;101079.25;5093249;28;20309;-81
2023/01/11 10:01:58;;;;;;;0.20;0.20;;;;;;;11.34;67.91;101073.94;5093816;28;20054;-79
2023/01/11 10:04:54;;;;;;;2.00;1.65;;;;;;;11.37;66.97;101067.69;5100826;28;20096;-83
2023/01/11 10:07:33;;;;;;;0.20;0.20;;;;;;;11.43;68.17;101088.78;5108010;28;20016;-85
2023/01/11 10:10:27;;;;;;;1.17;1.17;;;;;;;11.45;67.28;101066.63;5111840;28;20016;-80
2023/01/11 10:13:17;;;;;;;0.10;0.10;;;;;;;11.58;67.37;101079.66;5099107;28;20032;-82
2023/01/11 10:21:13;;;;;;;0.10;0.10;;;;;;;11.61;68.10;101092.84;5090684;27;1888120;-81
2023/01/11 10:24:00;;;;;;;0.10;0.10;;;;;;;11.62;67.90;101103.41;5121318;28;20111;-80
2023/01/11 10:26:34;;;;;;;0.10;0.10;;;;;;;11.73;68.34;101102.34;5111431;28;20223;-81
2023/01/11 10:32:12;;;;;;;1.00;0.60;;;;;;;11.82;67.77;101107.44;5113492;27;1179765;-81
2023/01/11 10:41:01;;;;;;;0.10;0.10;;;;;;;12.22;66.04;101114.56;5121968;28;20035;-82
2023/01/11 10:43:28;;;;;;;0.20;0.20;;;;;;;12.35;66.11;101109.88;5128419;28;20143;-82
2023/01/11 10:46:00;;;;;;;0.10;0.10;;;;;;;12.48;66.36;101110.47;5124646;27;20021;-82
2023/01/11 10:48:37;;;;;;;0.20;0.20;;;;;;;12.41;65.02;101122.13;5128749;28;20023;-81
2023/01/11 10:51:13;;;;;;;0.10;0.10;;;;;;;12.46;64.36;101104.28;5128650;28;20046;-82
2023/01/11 10:53:54;;;;;;;0.10;0.10;;;;;;;12.47;64.10;101103.38;5129358;27;20023;-82
2023/01/11 10:56:38;;;;;;;3.25;2.47;;;;;;;12.53;64.42;101105.03;5120799;28;20028;-84
2023/01/11 10:59:23;;;;;;;0.10;0.10;;;;;;;12.48;64.01;101112.25;5111094;28;20053;-82
2023/01/11 11:02:19;;;;;;;0.20;0.20;;;;;;;12.57;63.65;101106.69;5110349;28;20073;-82
2023/01/11 11:07:41;;;;;;;0.10;0.10;;;;;;;12.61;63.47;101088.00;5110351;27;20120;-82
2023/01/11 11:10:32;;;;;;;0.10;0.10;;;;;;;12.70;63.88;101091.34;5097619;28;20028;-82
2023/01/11 11:13:38;;;;;;;0.57;0.38;;;;;;;12.65;63.13;101094.13;5093587;28;20056;-87
2023/01/11 11:18:42;;;;;;;0.57;0.57;;;;;;;12.59;63.18;101092.47;5132291;27;20386;-82
2023/01/11 11:21:21;;;;;;;0.10;0.10;;;;;;;12.62;62.80;101099.50;5139149;27;20042;-83
2023/01/11 11:23:55;;;;;;;0.10;0.10;;;;;;;12.59;63.58;101105.75;5142432;27;20090;-82
2023/01/11 11:26:28;;;;;;;0.15;0.15;;;;;;;12.55;63.23;101100.56;5150265;27;20003;-83
2023/01/11 11:29:05;;;;;;;0.10;0.10;;;;;;;12.48;62.66;101102.47;5142655;28;20116;-83
2023/01/11 11:31:33;;;;;;;0.20;0.20;;;;;;;12.51;62.28;101097.13;5128455;27;20046;-86
2023/01/11 11:34:05;;;;;;;0.10;0.10;;;;;;;12.53;62.55;101087.28;5132542;27;20030;-82
2023/01/11 11:36:42;;;;;;;0.35;0.35;;;;;;;12.53;62.61;101095.28;5138049;27;20028;-83
2023/01/11 11:41:49;;;;;;;0.20;0.20;;;;;;;12.54;61.47;101101.47;5118246;27;1197338;-80
2023/01/11 11:44:19;;;;;;;0.10;0.10;;;;;;;12.57;62.15;101109.34;5113474;28;20044;-81
2023/01/11 11:49:34;;;;;;;0.10;0.10;;;;;;;12.60;61.77;101102.19;5120897;27;1208607;-81
2023/01/11 11:52:03;;;;;;;0.10;0.10;;;;;;;12.66;62.17;101106.50;5124519;27;20049;-80
2023/01/11 11:54:33;;;;;;;0.95;0.95;;;;;;;12.52;59.38;101097.97;5111159;28;20229;-81
2023/01/11 12:00:03;;;;;;;0.75;0.60;;;;;;;12.49;57.63;101114.00;5114022;27;20395;-82
2023/01/11 12:02:32;;;;;;;0.10;0.10;;;;;;;12.40;57.75;101120.38;5116315;28;20062;-82
2023/01/11 12:05:05;;;;;;;0.10;0.10;;;;;;;12.19;56.78;101117.31;5118158;28;20380;-82
2023/01/11 12:07:35;;;;;;;0.03;0.03;;;;;;;12.24;57.45;101126.06;5120542;28;20036;-81
2023/01/11 12:10:11;;;;;;;0.10;0.10;;;;;;;12.26;57.17;101123.34;5119761;28;20035;-82
2023/01/11 12:12:57;;;;;;;0.10;0.10;;;;;;;12.24;57.95;101120.75;5117080;28;20083;-82
2023/01/11 12:24:18;;;;;;;0.10;0.10;;;;;;;12.29;57.31;101129.47;5077456;28;20394;-82
2023/01/11 12:32:26;;;;;;;0.10;0.10;;;;;;;12.09;57.46;101127.28;5115013;27;1202958;-81
2023/01/11 12:35:20;;;;;;;0.85;0.85;;;;;;;12.16;57.97;101128.00;5140565;28;20031;-83
2023/01/11 12:40:39;;;;;;;0.10;0.10;;;;;;;12.16;57.44;101135.97;5082960;28;20397;-81
2023/01/11 12:52:39;;;;;;;0.10;0.10;;;;;;;12.39;57.30;101130.16;5080937;28;20391;-82
2023/01/11 12:55:24;;;;;;;1.40;1.30;;;;;;;12.40;57.58;101139.88;5081605;28;20041;-82
2023/01/11 12:58:14;;;;;;;0.10;0.10;;;;;;;12.37;56.80;101141.72;5083520;28;20028;-81
2023/01/11 13:01:20;;;;;;;0.10;0.10;;;;;;;12.34;56.89;101140.00;5071890;28;20036;-80
2023/01/11 13:07:13;;;;;;;0.10;0.10;;;;;;;12.42;57.41;101129.19;5082637;28;20410;-81
2023/01/11 13:10:05;;;;;;;0.10;0.10;;;;;;;12.40;56.81;101137.22;5064882;28;20040;-81
2023/01/11 13:15:25;;;;;;;2.43;2.33;;;;;;;12.30;56.19;101128.56;5128611;27;1194901;-81
2023/01/11 13:23:31;;;;;;;4.95;1.52;;;;;;;12.30;56.85;101123.25;5111572;27;20129;-81
2023/01/11 13:26:09;;;;;;;0.10;0.10;;;;;;;12.31;56.78;101118.81;5106208;28;20033;-82
2023/01/11 13:28:39;;;;;;;0.10;0.10;;;;;;;12.17;57.04;101127.09;5101349;28;20083;-79
2023/01/11 13:31:09;;;;;;;0.32;0.32;;;;;;;12.05;56.32;101109.66;5105967;28;20166;-82
2023/01/11 13:33:39;;;;;;;0.10;0.10;;;;;;;12.00;56.51;101111.56;5103531;28;20085;-82
2023/01/11 13:36:17;;;;;;;9.02;2.05;;;;;;;12.12;55.87;101111.28;5103068;28;20096;-81
2023/01/11 13:41:30;;;;;;;0.10;0.10;;;;;;;12.08;55.83;101114.03;5117803;27;1174317;-82
2023/01/11 13:53:18;;;;;;;0.10;0.10;;;;;;;12.28;55.55;101085.22;5113701;27;20384;-82
2023/01/11 13:56:10;;;;;;;0.47;0.47;;;;;;;12.42;55.14;101087.56;5094532;28;20037;-81
2023/01/11 14:01:38;;;;;;;0.15;0.15;;;;;;;12.40;56.97;101084.06;5112978;27;1188087;-80
2023/01/11 14:04:13;;;;;;;0.45;0.45;;;;;;;12.37;56.57;101080.59;5123323;28;20028;-81
2023/01/11 14:10:03;;;;;;;0.10;0.10;;;;;;;12.39;57.04;101077.00;5084432;27;1195915;-80